Time;durP1;ratioP1;P1;durP2;ratioP2;P2;SDS_P1;SDS_P2;PMS_P1;PMS_P2;Temp;Humidity;BMP_temperature;BMP_pressure;BME280_temperature;BME280_humidity;BME280_pressure;Samples;Min_cycle;Max_cycle;Signal;HPM_P1;HPM_P2
2022/06/15 00:01:48;;;;;;;1051.03;940.93;;;12.00;79.90;;;;;;4981583;28;20046;-67
2022/06/15 00:04:14;;;;;;;1110.77;989.87;;;12.00;79.80;;;;;;4974377;28;20051;-67
2022/06/15 00:06:41;;;;;;;1109.67;993.53;;;12.10;79.90;;;;;;4965635;28;20359;-67
2022/06/15 00:09:07;;;;;;;1062.88;954.17;;;12.10;80.00;;;;;;4978263;28;20078;-67
2022/06/15 00:11:36;;;;;;;1104.88;987.70;;;12.10;79.80;;;;;;4974204;28;20500;-67
2022/06/15 00:14:06;;;;;;;1090.38;977.08;;;12.10;79.90;;;;;;4971175;28;20055;-67
2022/06/15 00:16:32;;;;;;;1103.93;981.15;;;12.10;79.90;;;;;;4973902;28;20051;-67
2022/06/15 00:18:58;;;;;;;1106.20;982.65;;;12.10;79.80;;;;;;4980968;28;20047;-67
2022/06/15 00:21:24;;;;;;;1141.73;997.90;;;12.10;79.70;;;;;;4970912;28;20044;-67
2022/06/15 00:23:50;;;;;;;1125.43;978.67;;;12.10;79.80;;;;;;4987289;28;20109;-67
2022/06/15 00:26:16;;;;;;;1126.88;949.30;;;12.10;79.80;;;;;;4968575;28;20042;-67
2022/06/15 00:28:42;;;;;;;1105.07;937.60;;;12.00;79.90;;;;;;4986031;28;20133;-67
2022/06/15 00:31:08;;;;;;;1034.10;921.57;;;12.00;80.00;;;;;;4985011;28;20560;-67
2022/06/15 00:33:34;;;;;;;1015.80;906.05;;;12.00;80.00;;;;;;4969888;28;20049;-67
2022/06/15 00:36:03;;;;;;;1056.17;940.73;;;12.00;80.20;;;;;;4984230;28;20046;-67
2022/06/15 00:38:35;;;;;;;1066.50;951.15;;;11.90;80.50;;;;;;4959076;28;20547;-67
2022/06/15 00:41:03;;;;;;;1123.88;999.22;;;11.90;80.70;;;;;;4968515;28;20101;-67
2022/06/15 00:43:47;;;;;;;1053.45;946.33;;;11.90;80.90;;;;;;4986754;28;20108;-67
2022/06/15 00:46:41;;;;;;;1089.55;973.70;;;11.90;80.90;;;;;;4985970;28;20124;-67
2022/06/15 00:49:24;;;;;;;1056.00;954.80;;;12.00;80.90;;;;;;4985536;28;20054;-67
2022/06/15 00:51:53;;;;;;;1116.15;999.90;;;12.00;80.70;;;;;;4979294;28;20045;-67
2022/06/15 00:54:21;;;;;;;1074.00;966.17;;;12.00;80.50;;;;;;4968910;28;20042;-67
2022/06/15 00:56:47;;;;;;;1095.35;983.92;;;12.10;80.50;;;;;;4986473;28;20038;-67
2022/06/15 00:59:19;;;;;;;1090.90;982.30;;;12.00;80.50;;;;;;4986672;28;20077;-67
2022/06/15 01:01:47;;;;;;;1049.03;946.78;;;12.00;80.70;;;;;;4986234;28;20065;-67
2022/06/15 01:04:12;;;;;;;1082.82;975.63;;;12.00;80.80;;;;;;4985959;28;20042;-67
2022/06/15 01:06:41;;;;;;;1099.03;991.87;;;11.90;80.80;;;;;;4986958;28;20109;-67
2022/06/15 01:09:13;;;;;;;1082.75;981.28;;;11.90;81.00;;;;;;4982320;28;20097;-67
2022/06/15 01:11:57;;;;;;;1106.03;995.92;;;11.90;81.00;;;;;;4986581;28;20057;-67
2022/06/15 01:14:55;;;;;;;1091.18;986.53;;;11.90;81.20;;;;;;4985434;28;20407;-67
2022/06/15 01:17:21;;;;;;;1053.20;958.40;;;11.90;81.20;;;;;;4967537;28;20046;-67
2022/06/15 01:20:14;;;;;;;1104.13;995.10;;;11.90;81.30;;;;;;4999378;28;20059;-67
2022/06/15 01:22:48;;;;;;;1101.72;994.50;;;11.90;81.50;;;;;;4970111;28;20039;-67
2022/06/15 01:25:26;;;;;;;1080.55;981.20;;;11.90;81.40;;;;;;4980512;28;20038;-67
2022/06/15 01:28:22;;;;;;;1063.88;962.95;;;11.90;81.50;;;;;;4985063;28;20053;-67
2022/06/15 01:30:58;;;;;;;1086.47;982.63;;;11.80;81.50;;;;;;4985297;28;20367;-67
2022/06/15 01:33:46;;;;;;;1078.30;979.45;;;11.80;81.80;;;;;;4985591;28;20395;-67
2022/06/15 01:37:04;;;;;;;1094.97;989.53;;;11.80;81.60;;;;;;4983920;28;20038;-67
2022/06/15 01:39:41;;;;;;;1058.13;960.70;;;11.80;81.80;;;;;;4932422;28;20041;-67
2022/06/15 01:42:20;;;;;;;1053.70;959.13;;;11.80;81.80;;;;;;4976827;28;20046;-67
2022/06/15 01:44:51;;;;;;;1045.70;947.50;;;11.80;81.80;;;;;;4984536;28;20042;-67
2022/06/15 01:47:24;;;;;;;1061.53;964.10;;;11.80;81.80;;;;;;4986098;28;20049;-67
2022/06/15 01:50:12;;;;;;;1076.80;977.63;;;11.80;81.80;;;;;;4985673;28;20081;-67
2022/06/15 01:52:50;;;;;;;1076.05;972.83;;;11.90;81.90;;;;;;4976584;28;20054;-67
2022/06/15 01:55:27;;;;;;;1080.65;977.88;;;11.90;81.90;;;;;;4984742;28;20559;-67
2022/06/15 01:57:55;;;;;;;1115.95;998.20;;;11.90;82.00;;;;;;4976669;28;20070;-67
2022/06/15 02:00:21;;;;;;;1103.03;996.42;;;11.80;81.90;;;;;;4976034;28;20404;-67
2022/06/15 02:03:09;;;;;;;1053.95;956.08;;;11.90;82.30;;;;;;4985290;28;20058;-67
2022/06/15 02:06:16;;;;;;;1096.32;993.80;;;11.80;82.30;;;;;;4979111;28;20050;-67
2022/06/15 02:08:53;;;;;;;1043.20;946.80;;;11.80;82.40;;;;;;4972058;28;20054;-67
2022/06/15 02:11:29;;;;;;;1095.05;995.78;;;11.80;82.30;;;;;;4964026;28;20042;-67
2022/06/15 02:14:05;;;;;;;1101.53;995.33;;;11.70;82.30;;;;;;4965772;28;20121;-67
2022/06/15 02:16:38;;;;;;;1020.00;931.35;;;11.70;82.40;;;;;;4979024;28;20117;-67
2022/06/15 02:19:08;;;;;;;1044.65;950.10;;;11.60;82.60;;;;;;4966751;28;20065;-67
2022/06/15 02:21:38;;;;;;;1042.05;952.55;;;11.60;82.50;;;;;;4955649;28;20034;-67
2022/06/15 02:24:05;;;;;;;1134.15;999.90;;;11.50;82.60;;;;;;4968534;28;20050;-67
2022/06/15 02:26:34;;;;;;;1090.20;988.13;;;11.50;82.70;;;;;;4965647;28;20072;-67
2022/06/15 02:29:13;;;;;;;1095.22;993.08;;;11.50;82.90;;;;;;4984284;28;20130;-67
2022/06/15 02:31:40;;;;;;;1090.25;987.15;;;11.50;83.00;;;;;;4985811;28;20152;-67
2022/06/15 02:34:07;;;;;;;1103.25;996.42;;;11.50;83.10;;;;;;4988027;28;20042;-67
2022/06/15 02:36:33;;;;;;;1101.97;989.20;;;11.50;83.30;;;;;;4972563;28;20046;-67
2022/06/15 02:39:02;;;;;;;1103.05;989.63;;;11.50;83.40;;;;;;4988914;28;20546;-67
2022/06/15 02:41:27;;;;;;;1130.25;999.35;;;11.60;83.60;;;;;;4976859;28;20053;-67
2022/06/15 02:43:56;;;;;;;1108.73;995.83;;;11.60;83.70;;;;;;4955912;28;20686;-67
2022/06/15 02:46:24;;;;;;;1113.28;999.90;;;11.60;83.80;;;;;;5002900;28;20043;-67
2022/06/15 02:48:51;;;;;;;1079.22;978.35;;;11.60;83.70;;;;;;4988492;28;20046;-67
2022/06/15 02:51:47;;;;;;;1068.82;971.28;;;11.60;83.70;;;;;;4988250;28;20314;-67
2022/06/15 02:54:39;;;;;;;1104.13;998.15;;;11.60;83.90;;;;;;4988220;28;20097;-67
2022/06/15 02:57:05;;;;;;;1115.93;998.33;;;11.60;83.80;;;;;;4986081;28;20039;-67
2022/06/15 02:59:31;;;;;;;1121.82;999.90;;;11.60;84.00;;;;;;4982835;28;20507;-67
2022/06/15 03:01:57;;;;;;;1136.50;999.90;;;11.60;84.10;;;;;;4973577;28;20062;-67
2022/06/15 03:04:23;;;;;;;1140.30;999.90;;;11.60;84.00;;;;;;4993949;28;20058;-67
2022/06/15 03:06:49;;;;;;;1135.63;998.53;;;11.60;84.50;;;;;;4953063;28;20397;-67
2022/06/15 03:09:14;;;;;;;1130.17;997.80;;;11.60;84.40;;;;;;4970523;28;20034;-67
2022/06/15 03:11:40;;;;;;;1062.23;946.13;;;11.50;84.20;;;;;;4981895;28;20538;-67
2022/06/15 03:14:07;;;;;;;1133.80;999.90;;;11.50;84.20;;;;;;4984805;28;20043;-67
2022/06/15 03:16:32;;;;;;;1129.70;998.95;;;11.50;84.40;;;;;;4954431;28;20038;-67
2022/06/15 03:18:58;;;;;;;1152.10;999.90;;;11.50;84.40;;;;;;4975909;28;20097;-67
2022/06/15 03:21:24;;;;;;;1102.93;987.97;;;11.50;84.30;;;;;;4982753;28;20084;-67
2022/06/15 03:23:50;;;;;;;1070.73;960.53;;;11.50;84.40;;;;;;4987758;28;20046;-67
2022/06/15 03:26:16;;;;;;;1124.47;999.90;;;11.50;84.30;;;;;;4971178;28;20085;-67
2022/06/15 03:28:42;;;;;;;1108.10;989.60;;;11.50;84.30;;;;;;4986823;28;20122;-67
2022/06/15 03:31:08;;;;;;;1102.10;987.43;;;11.50;84.40;;;;;;4984994;28;20078;-67
2022/06/15 03:33:34;;;;;;;1103.75;986.22;;;11.50;84.40;;;;;;4987100;28;20127;-67
2022/06/15 03:36:00;;;;;;;1130.97;997.97;;;11.50;84.40;;;;;;4969889;28;20051;-67
2022/06/15 03:38:28;;;;;;;1092.50;978.17;;;11.50;84.50;;;;;;4971352;28;20447;-67
2022/06/15 03:40:54;;;;;;;1061.32;952.90;;;11.50;84.40;;;;;;4985566;28;20046;-67
2022/06/15 03:43:20;;;;;;;1073.10;966.20;;;11.50;84.40;;;;;;4969450;28;20038;-67
2022/06/15 03:45:46;;;;;;;1115.15;996.90;;;11.50;84.40;;;;;;4986001;28;20050;-67
2022/06/15 03:48:12;;;;;;;1034.83;932.63;;;11.60;84.80;;;;;;4957982;28;20399;-67
2022/06/15 03:50:38;;;;;;;1094.18;982.40;;;11.60;84.60;;;;;;4966353;28;20046;-67
2022/06/15 03:53:06;;;;;;;1056.80;949.15;;;11.60;84.70;;;;;;4971119;28;20550;-67
2022/06/15 03:55:32;;;;;;;1089.85;974.50;;;11.60;84.70;;;;;;4985718;28;20042;-67
2022/06/15 03:57:58;;;;;;;1107.22;989.00;;;11.70;84.60;;;;;;4987341;28;20447;-67
2022/06/15 04:00:27;;;;;;;1110.43;992.87;;;11.70;84.30;;;;;;4970427;28;20045;-67
2022/06/15 04:02:53;;;;;;;1116.47;997.47;;;11.70;84.20;;;;;;4987389;28;20137;-67
2022/06/15 04:05:31;;;;;;;1093.70;983.65;;;11.70;83.90;;;;;;4986584;28;20306;-67
2022/06/15 04:10:40;;;;;;;1079.63;971.97;;;11.70;83.50;;;;;;4976170;28;20073;-67
2022/06/15 04:13:06;;;;;;;1071.17;966.90;;;11.70;83.40;;;;;;5005890;28;20046;-67
2022/06/15 04:15:33;;;;;;;1086.30;970.47;;;11.70;83.30;;;;;;4986526;28;20402;-67
2022/06/15 04:17:58;;;;;;;1105.05;991.17;;;11.70;83.30;;;;;;4987047;28;20038;-67
2022/06/15 04:20:32;;;;;;;1100.17;989.17;;;11.70;83.20;;;;;;4987185;28;20137;-67
2022/06/15 04:23:06;;;;;;;1099.47;983.35;;;11.70;83.20;;;;;;4987594;28;20046;-67
2022/06/15 04:25:36;;;;;;;1083.47;969.97;;;11.80;83.30;;;;;;4980245;28;20057;-67
2022/06/15 04:28:02;;;;;;;1072.22;963.55;;;11.80;83.20;;;;;;4984418;28;20072;-67
2022/06/15 04:30:28;;;;;;;1071.35;963.03;;;11.80;83.00;;;;;;4986769;28;20038;-67
2022/06/15 04:32:54;;;;;;;1048.83;941.47;;;11.80;83.00;;;;;;4970223;28;20046;-67
2022/06/15 04:35:19;;;;;;;1086.97;980.07;;;11.80;83.00;;;;;;4985634;28;20579;-67
2022/06/15 04:37:45;;;;;;;1131.10;999.90;;;11.80;83.10;;;;;;4976038;28;20157;-67
2022/06/15 04:40:12;;;;;;;1084.57;976.07;;;11.80;83.10;;;;;;4970377;28;20050;-67
2022/06/15 04:42:39;;;;;;;1109.65;996.65;;;11.90;83.00;;;;;;4967151;28;20069;-67
2022/06/15 04:45:05;;;;;;;1066.53;960.22;;;11.90;83.00;;;;;;4967659;28;20069;-67
2022/06/15 04:47:31;;;;;;;1061.13;959.10;;;11.90;82.80;;;;;;4982165;28;20048;-67
2022/06/15 04:49:57;;;;;;;1034.93;932.50;;;12.00;82.90;;;;;;4979686;28;20042;-67
2022/06/15 04:52:23;;;;;;;1093.17;984.63;;;12.00;82.90;;;;;;4984220;28;20069;-67
2022/06/15 04:54:48;;;;;;;1070.43;959.73;;;12.00;82.90;;;;;;4984425;28;20045;-67
2022/06/15 04:57:14;;;;;;;1068.60;960.30;;;12.10;82.90;;;;;;4983525;28;20044;-67
2022/06/15 04:59:40;;;;;;;1143.83;999.90;;;12.20;82.70;;;;;;4984532;28;20112;-67
2022/06/15 05:02:07;;;;;;;1181.40;999.90;;;12.60;83.50;;;;;;4981883;28;20124;-67
2022/06/15 05:04:33;;;;;;;1171.93;999.90;;;13.20;82.60;;;;;;4983530;28;20049;-67
2022/06/15 05:06:58;;;;;;;1165.93;999.90;;;13.50;81.40;;;;;;4967107;28;20046;-67
2022/06/15 05:09:24;;;;;;;1248.00;999.90;;;14.20;81.40;;;;;;4967427;28;20050;-67
2022/06/15 05:11:50;;;;;;;1259.93;999.90;;;15.20;80.10;;;;;;4996201;28;20054;-67
2022/06/15 05:14:16;;;;;;;1318.13;999.90;;;16.30;77.50;;;;;;4965352;28;20042;-67
2022/06/15 05:16:42;;;;;;;1233.17;999.90;;;17.20;74.20;;;;;;4980844;28;20034;-67
2022/06/15 05:19:07;;;;;;;1352.17;999.90;;;18.00;71.90;;;;;;4966493;28;20150;-67
2022/06/15 05:21:42;;;;;;;1448.43;999.90;;;18.70;70.30;;;;;;4975986;28;20485;-68
2022/06/15 05:24:09;;;;;;;1367.13;999.90;;;19.40;67.40;;;;;;4962838;28;20046;-68
2022/06/15 05:26:34;;;;;;;1476.20;999.90;;;19.80;64.90;;;;;;4963846;28;20384;-68
2022/06/15 05:29:00;;;;;;;1465.47;999.90;;;20.20;64.00;;;;;;4945970;28;20320;-68
2022/06/15 05:31:26;;;;;;;1457.23;999.90;;;20.50;62.90;;;;;;4966551;28;20039;-68
2022/06/15 05:33:53;;;;;;;1306.63;999.90;;;20.90;62.70;;;;;;4985686;28;20484;-68
2022/06/15 05:36:22;;;;;;;1420.80;999.90;;;21.10;61.30;;;;;;4984540;28;20046;-68
2022/06/15 05:38:48;;;;;;;1491.50;999.90;;;21.40;60.50;;;;;;4985269;28;20333;-68
2022/06/15 05:41:14;;;;;;;1604.40;999.90;;;21.60;60.00;;;;;;4985413;28;20332;-68
2022/06/15 05:46:32;;;;;;;1362.15;999.90;;;21.90;58.40;;;;;;4994878;28;20057;-68
2022/06/15 05:48:59;;;;;;;1386.13;999.90;;;21.90;57.70;;;;;;4986949;28;20054;-68
2022/06/15 05:51:26;;;;;;;1347.70;999.90;;;22.30;57.80;;;;;;4986042;28;20802;-68
2022/06/15 05:53:52;;;;;;;1345.63;999.90;;;22.40;57.10;;;;;;4985685;28;20677;-68
2022/06/15 05:56:18;;;;;;;1335.43;999.90;;;22.60;56.90;;;;;;4985554;28;20289;-67
2022/06/15 05:58:45;;;;;;;1381.60;999.90;;;22.90;56.30;;;;;;4985772;28;20297;-67
2022/06/15 06:01:17;;;;;;;1400.37;999.90;;;23.10;55.40;;;;;;4984381;28;20368;-67
2022/06/15 06:03:43;;;;;;;1407.10;999.90;;;23.20;55.10;;;;;;4983769;28;20297;-67
2022/06/15 06:06:10;;;;;;;1394.77;999.90;;;23.20;55.10;;;;;;4984411;28;20293;-67
2022/06/15 06:08:36;;;;;;;1381.07;999.90;;;23.30;54.60;;;;;;4982357;28;20042;-67
2022/06/15 06:11:02;;;;;;;1413.57;999.90;;;23.30;53.80;;;;;;4971975;28;20306;-67
2022/06/15 06:13:28;;;;;;;1407.50;999.90;;;23.10;53.80;;;;;;4967959;28;20411;-67
2022/06/15 06:15:56;;;;;;;1326.33;999.90;;;23.10;54.30;;;;;;4967419;28;20046;-67
2022/06/15 06:18:25;;;;;;;1326.10;999.90;;;23.10;54.40;;;;;;4969320;28;20039;-67
2022/06/15 06:20:51;;;;;;;1304.47;999.90;;;23.20;53.30;;;;;;4984220;28;20046;-67
2022/06/15 06:23:18;;;;;;;1342.30;999.90;;;23.00;54.20;;;;;;4968446;28;20467;-67
2022/06/15 06:25:47;;;;;;;1230.70;999.90;;;23.00;54.70;;;;;;4987880;28;20050;-67
2022/06/15 06:28:38;;;;;;;1279.23;999.90;;;23.10;54.20;;;;;;4969054;28;20129;-67
2022/06/15 06:31:06;;;;;;;1330.30;999.90;;;23.20;53.80;;;;;;4979660;28;20054;-67
2022/06/15 06:33:34;;;;;;;1272.23;999.90;;;23.40;54.20;;;;;;4985954;28;20066;-67
2022/06/15 06:36:03;;;;;;;1271.17;999.90;;;23.40;54.00;;;;;;4983759;28;20111;-67
2022/06/15 06:38:29;;;;;;;1159.50;999.90;;;23.40;54.30;;;;;;4966861;28;20078;-67
2022/06/15 06:40:56;;;;;;;1314.50;999.90;;;23.60;54.20;;;;;;4967345;28;20049;-67
2022/06/15 06:43:22;;;;;;;1184.63;999.90;;;23.90;53.50;;;;;;4982706;28;20065;-67
2022/06/15 06:45:49;;;;;;;1247.90;999.90;;;24.10;52.50;;;;;;4968117;28;20050;-67
2022/06/15 06:48:15;;;;;;;1196.07;999.90;;;24.20;52.70;;;;;;4967239;28;20177;-67
2022/06/15 06:50:41;;;;;;;1144.73;999.90;;;24.20;51.90;;;;;;4967898;28;20047;-67
2022/06/15 06:53:10;;;;;;;1150.77;999.90;;;24.20;51.30;;;;;;4966605;28;20046;-67
2022/06/15 06:55:36;;;;;;;1145.50;999.90;;;24.10;51.20;;;;;;4967959;28;20042;-67
2022/06/15 06:58:02;;;;;;;1139.70;999.90;;;24.00;51.00;;;;;;4967886;28;20065;-67
2022/06/15 07:00:31;;;;;;;1126.70;999.90;;;23.80;50.90;;;;;;4969409;28;20104;-67
2022/06/15 07:03:01;;;;;;;1132.83;999.90;;;23.60;50.80;;;;;;4973777;28;20146;-67
2022/06/15 07:05:27;;;;;;;1128.33;999.90;;;23.40;52.90;;;;;;4972243;28;20046;-68
2022/06/15 07:07:53;;;;;;;1103.20;994.43;;;23.30;52.80;;;;;;4959662;28;20126;-68
2022/06/15 07:10:19;;;;;;;1113.77;999.90;;;23.40;52.00;;;;;;4982996;28;20121;-68
2022/06/15 07:12:46;;;;;;;1126.90;999.90;;;23.10;51.50;;;;;;4985353;28;20078;-67
2022/06/15 07:15:14;;;;;;;1105.73;998.27;;;23.00;52.80;;;;;;4983565;28;20245;-67
2022/06/15 07:17:40;;;;;;;1134.33;999.90;;;22.80;53.00;;;;;;4970559;28;20129;-67
2022/06/15 07:20:08;;;;;;;1119.97;999.90;;;22.80;53.40;;;;;;4972118;28;20050;-67
2022/06/15 07:22:34;;;;;;;1096.80;998.13;;;22.70;53.60;;;;;;4989103;28;20092;-67
2022/06/15 07:25:01;;;;;;;1095.60;993.63;;;22.60;53.20;;;;;;4983255;28;20243;-67
2022/06/15 07:27:27;;;;;;;1055.43;963.63;;;22.40;53.40;;;;;;4987334;28;20518;-67
2022/06/15 07:29:55;;;;;;;1038.47;951.47;;;22.20;53.10;;;;;;4988573;28;20069;-67
2022/06/15 07:32:22;;;;;;;1072.00;978.13;;;21.90;52.00;;;;;;4972971;28;20042;-68
2022/06/15 07:34:47;;;;;;;1065.30;969.93;;;21.60;52.20;;;;;;4971975;28;20155;-68
2022/06/15 07:37:13;;;;;;;1079.33;987.17;;;21.40;53.50;;;;;;4972083;28;20062;-68
2022/06/15 07:39:39;;;;;;;1075.97;982.87;;;21.40;53.50;;;;;;4988635;28;20042;-68
2022/06/15 07:42:07;;;;;;;1085.77;989.27;;;21.50;53.40;;;;;;4989186;28;20046;-68
2022/06/15 07:44:34;;;;;;;1040.73;949.33;;;21.60;53.60;;;;;;4970368;28;20380;-68
2022/06/15 07:49:55;;;;;;;1104.20;997.90;;;21.60;53.60;;;;;;4986085;28;20529;-68
2022/06/15 07:52:34;;;;;;;1108.18;999.70;;;21.50;53.90;;;;;;4969822;28;20046;-68
2022/06/15 07:55:00;;;;;;;1059.20;962.83;;;21.40;55.10;;;;;;4968951;28;20047;-68
2022/06/15 07:57:26;;;;;;;1078.97;984.23;;;21.30;54.70;;;;;;4970305;28;20042;-68
2022/06/15 07:59:52;;;;;;;1121.43;999.90;;;21.30;54.20;;;;;;4985590;28;20458;-68
2022/06/15 08:02:19;;;;;;;1087.50;981.60;;;21.20;54.80;;;;;;4971691;28;20069;-68
2022/06/15 08:04:46;;;;;;;1104.90;999.90;;;21.20;55.80;;;;;;4977684;28;20209;-68
2022/06/15 08:07:13;;;;;;;1091.93;992.73;;;21.30;54.50;;;;;;4978101;28;20039;-68
2022/06/15 08:09:40;;;;;;;1065.17;972.57;;;21.30;53.80;;;;;;4994382;28;20042;-68
2022/06/15 08:12:18;;;;;;;1087.93;986.30;;;21.30;53.00;;;;;;4987406;28;20546;-68
2022/06/15 08:14:55;;;;;;;1058.37;966.50;;;21.30;54.20;;;;;;4988032;28;20387;-68
2022/06/15 08:17:28;;;;;;;1069.90;971.73;;;21.30;53.80;;;;;;4972030;28;20420;-68
2022/06/15 08:20:05;;;;;;;1050.27;958.87;;;21.30;53.80;;;;;;4988286;28;20446;-68
2022/06/15 08:22:31;;;;;;;1103.33;999.77;;;21.30;53.30;;;;;;4988487;28;20042;-68
2022/06/15 08:24:57;;;;;;;1122.80;999.90;;;21.30;54.70;;;;;;4983091;28;20081;-68
2022/06/15 08:27:23;;;;;;;1055.47;960.90;;;21.30;54.70;;;;;;4984665;28;20089;-68
2022/06/15 08:29:50;;;;;;;1079.50;979.17;;;21.20;54.20;;;;;;4985854;28;20515;-68
2022/06/15 08:32:18;;;;;;;1095.00;998.47;;;21.20;54.70;;;;;;4987547;28;20042;-68
2022/06/15 08:34:44;;;;;;;1038.30;946.00;;;21.20;54.10;;;;;;4987487;28;20050;-68
2022/06/15 08:37:13;;;;;;;1052.00;961.57;;;21.20;52.70;;;;;;4990288;28;20108;-68
2022/06/15 08:39:39;;;;;;;1060.33;968.03;;;21.20;51.80;;;;;;4980400;28;20084;-68
2022/06/15 08:42:14;;;;;;;1104.87;999.90;;;21.10;51.80;;;;;;5007336;28;20522;-68
2022/06/15 08:44:48;;;;;;;1065.45;975.38;;;21.10;52.20;;;;;;4984380;28;20047;-68
2022/06/15 08:47:39;;;;;;;1101.97;999.28;;;21.10;52.10;;;;;;4969122;28;20089;-68
2022/06/15 08:50:12;;;;;;;1072.53;977.60;;;21.20;52.50;;;;;;4969093;28;20157;-68
2022/06/15 08:52:40;;;;;;;1057.80;967.10;;;21.20;52.40;;;;;;4969880;28;20149;-68
2022/06/15 08:55:26;;;;;;;1073.17;978.43;;;21.30;52.40;;;;;;4968674;28;20061;-68
2022/06/15 08:57:55;;;;;;;1079.93;986.33;;;21.30;51.90;;;;;;4953281;28;20034;-68
2022/06/15 09:00:37;;;;;;;1074.73;980.30;;;21.50;51.60;;;;;;4970244;28;20052;-68
2022/06/15 09:03:34;;;;;;;1072.03;974.50;;;21.50;51.60;;;;;;4976155;28;20380;-68
2022/06/15 09:06:15;;;;;;;1045.57;957.70;;;21.70;52.30;;;;;;4976789;28;20046;-68
2022/06/15 09:09:28;;;;;;;1074.80;981.70;;;21.80;50.60;;;;;;4983642;28;20122;-68
2022/06/15 09:15:24;;;;;;;1076.38;984.58;;;21.80;50.60;;;;;;4985757;28;20603;-68
2022/06/15 09:17:51;;;;;;;1047.63;955.90;;;21.80;51.50;;;;;;4969396;28;20129;-68
2022/06/15 09:20:25;;;;;;;1065.53;970.13;;;22.00;51.60;;;;;;4953168;28;20538;-68
2022/06/15 09:23:06;;;;;;;1119.47;999.90;;;22.10;50.90;;;;;;4969409;28;20453;-68
2022/06/15 09:25:43;;;;;;;1063.70;973.00;;;22.30;51.40;;;;;;4970546;28;20046;-68
2022/06/15 09:28:25;;;;;;;1040.97;957.27;;;22.50;50.20;;;;;;4969311;28;20046;-68
2022/06/15 09:30:54;;;;;;;1001.57;920.77;;;22.50;49.90;;;;;;4970419;28;20526;-68
2022/06/15 09:33:22;;;;;;;1026.80;939.67;;;22.70;49.20;;;;;;4970339;28;20050;-68
2022/06/15 09:35:53;;;;;;;1015.40;931.83;;;22.90;49.30;;;;;;4985860;28;20046;-68
2022/06/15 09:38:20;;;;;;;998.60;920.20;;;23.00;49.10;;;;;;4986896;28;20042;-69
2022/06/15 09:40:59;;;;;;;1054.43;967.60;;;23.10;47.30;;;;;;4970017;28;20465;-69
2022/06/15 09:43:59;;;;;;;1028.27;941.47;;;23.20;48.60;;;;;;4976959;28;20046;-69
2022/06/15 09:46:47;;;;;;;1005.07;922.07;;;23.30;47.10;;;;;;4985575;28;20104;-68
2022/06/15 09:49:34;;;;;;;1044.80;959.13;;;23.50;46.60;;;;;;4985532;28;20050;-68
2022/06/15 09:52:39;;;;;;;999.43;924.17;;;23.50;48.00;;;;;;4969640;28;20046;-68
2022/06/15 09:55:16;;;;;;;986.13;905.20;;;23.70;46.50;;;;;;4948737;28;20082;-68
2022/06/15 09:57:43;;;;;;;999.80;919.83;;;23.90;46.70;;;;;;4958987;28;20126;-68
2022/06/15 10:00:14;;;;;;;989.33;908.80;;;24.10;47.00;;;;;;4968415;28;20053;-68
2022/06/15 10:02:44;;;;;;;978.20;901.93;;;24.20;45.00;;;;;;4971527;28;20058;-69
2022/06/15 10:05:25;;;;;;;977.27;900.33;;;24.30;44.30;;;;;;4973614;28;20609;-69
2022/06/15 10:07:53;;;;;;;1002.27;924.73;;;24.40;45.00;;;;;;4975853;28;20050;-68
2022/06/15 10:10:23;;;;;;;977.77;904.00;;;24.60;45.10;;;;;;4983438;28;20067;-69
2022/06/15 10:12:56;;;;;;;974.67;898.03;;;24.80;43.00;;;;;;4958852;28;20463;-69
2022/06/15 10:15:25;;;;;;;981.03;906.33;;;24.80;44.10;;;;;;4967364;28;20081;-69
2022/06/15 10:17:54;;;;;;;984.03;908.30;;;24.90;44.60;;;;;;4992576;28;20508;-69
2022/06/15 10:20:23;;;;;;;962.47;890.20;;;24.90;44.40;;;;;;4967772;28;20078;-69
2022/06/15 10:22:53;;;;;;;978.00;901.40;;;24.90;43.70;;;;;;4984281;28;20042;-69
2022/06/15 10:25:21;;;;;;;976.33;900.83;;;24.80;44.90;;;;;;4969998;28;20047;-69
2022/06/15 10:27:47;;;;;;;989.07;912.30;;;24.80;44.90;;;;;;4969435;28;20042;-68
2022/06/15 10:30:13;;;;;;;986.20;910.63;;;24.90;44.90;;;;;;4985800;28;20045;-69
2022/06/15 10:32:57;;;;;;;976.30;900.80;;;24.90;45.00;;;;;;4984648;28;20125;-69
2022/06/15 10:35:24;;;;;;;961.20;886.03;;;24.90;44.60;;;;;;4984944;28;20145;-69
2022/06/15 10:37:54;;;;;;;970.47;894.23;;;24.80;44.80;;;;;;4985656;28;20042;-69
2022/06/15 10:40:23;;;;;;;992.47;914.20;;;24.80;45.00;;;;;;4969809;28;20414;-69
2022/06/15 10:43:13;;;;;;;930.60;859.03;;;24.80;44.60;;;;;;4972119;28;20051;-69
2022/06/15 10:45:52;;;;;;;983.87;909.33;;;24.80;44.30;;;;;;4985205;28;20105;-68
2022/06/15 10:48:31;;;;;;;975.00;900.10;;;24.70;44.90;;;;;;4971488;28;20132;-69
2022/06/15 10:51:10;;;;;;;995.40;918.20;;;24.90;44.20;;;;;;4985291;28;20076;-69
2022/06/15 10:53:40;;;;;;;1008.23;927.10;;;25.10;44.70;;;;;;4960310;28;20494;-69
2022/06/15 11:02:38;;;;;;;992.57;918.53;;;25.60;43.50;;;;;;4952276;28;20389;-69
2022/06/15 11:05:20;;;;;;;943.40;873.57;;;25.70;42.30;;;;;;4991545;28;20061;-68
2022/06/15 11:07:54;;;;;;;965.80;894.87;;;25.60;43.00;;;;;;4978338;28;20049;-69
2022/06/15 11:10:33;;;;;;;976.70;902.72;;;25.50;42.50;;;;;;4987423;28;20569;-69
2022/06/15 11:13:05;;;;;;;968.97;894.30;;;25.30;43.40;;;;;;4988860;28;20038;-69
2022/06/15 11:18:33;;;;;;;941.63;870.90;;;24.80;43.90;;;;;;5005245;28;20101;-68
2022/06/15 11:21:23;;;;;;;945.30;874.60;;;24.40;44.70;;;;;;4972673;28;20050;-69
2022/06/15 11:24:26;;;;;;;969.20;894.07;;;24.30;45.20;;;;;;4981196;28;20047;-69
2022/06/15 11:27:03;;;;;;;946.80;874.80;;;24.40;45.00;;;;;;4969847;28;20054;-69
2022/06/15 11:29:54;;;;;;;962.53;888.20;;;24.20;44.70;;;;;;4988907;28;20053;-69
2022/06/15 11:32:54;;;;;;;963.23;887.67;;;24.10;45.20;;;;;;4981075;28;20577;-68
2022/06/15 11:35:38;;;;;;;974.10;897.37;;;24.00;45.50;;;;;;4989241;28;20035;-68
2022/06/15 11:38:31;;;;;;;977.20;898.43;;;23.90;46.40;;;;;;4977076;28;20046;-68
2022/06/15 11:41:11;;;;;;;980.43;903.47;;;23.70;47.50;;;;;;4988659;28;20046;-68
2022/06/15 11:43:44;;;;;;;1022.77;940.40;;;23.40;48.10;;;;;;4988136;28;20042;-68
2022/06/15 11:46:53;;;;;;;1027.37;944.03;;;23.30;49.10;;;;;;4972078;28;20046;-68
2022/06/15 11:49:39;;;;;;;998.17;917.60;;;23.50;48.80;;;;;;4988077;28;20109;-68
2022/06/15 11:52:17;;;;;;;1003.77;921.17;;;23.80;47.60;;;;;;4988052;28;20050;-68
2022/06/15 11:55:08;;;;;;;986.20;909.47;;;24.10;47.10;;;;;;4988409;28;20403;-68
2022/06/15 11:58:06;;;;;;;1016.63;934.30;;;24.40;46.50;;;;;;4987723;28;20065;-68
2022/06/15 12:00:34;;;;;;;980.80;903.03;;;24.50;46.50;;;;;;4987877;28;20520;-68
2022/06/15 12:03:21;;;;;;;999.27;919.53;;;24.70;46.00;;;;;;4987284;28;20077;-69
2022/06/15 12:05:53;;;;;;;995.77;913.43;;;24.80;45.50;;;;;;4987363;28;20534;-69
2022/06/15 12:08:50;;;;;;;983.03;902.63;;;25.00;45.90;;;;;;4987180;28;20557;-69
2022/06/15 12:14:26;;;;;;;946.80;876.87;;;25.20;44.00;;;;;;4977732;28;20042;-69
2022/06/15 12:17:08;;;;;;;998.70;919.83;;;25.30;42.80;;;;;;4970994;28;20043;-69
2022/06/15 12:20:15;;;;;;;967.00;892.10;;;25.50;44.10;;;;;;4987547;28;20042;-69
2022/06/15 12:23:09;;;;;;;942.50;869.20;;;25.60;44.30;;;;;;4981484;28;20616;-69
2022/06/15 12:25:59;;;;;;;992.63;915.20;;;25.80;43.10;;;;;;4972086;28;20515;-69
2022/06/15 12:28:50;;;;;;;947.63;874.80;;;25.70;42.60;;;;;;4986688;28;20089;-68
2022/06/15 12:31:33;;;;;;;984.83;906.00;;;25.40;43.60;;;;;;4971063;28;20050;-68
2022/06/15 12:34:38;;;;;;;985.97;908.33;;;24.90;44.10;;;;;;4976139;28;20046;-68
2022/06/15 12:37:26;;;;;;;976.53;904.38;;;24.50;44.10;;;;;;4956714;28;20396;-68
2022/06/15 12:40:22;;;;;;;973.17;898.73;;;24.20;45.10;;;;;;4950161;28;20066;-68
2022/06/15 12:42:54;;;;;;;994.43;915.87;;;24.10;45.10;;;;;;4968398;28;20053;-68
2022/06/15 12:45:36;;;;;;;1002.97;924.93;;;23.90;45.30;;;;;;4967951;28;20326;-68
2022/06/15 12:48:09;;;;;;;1001.37;922.83;;;23.80;45.60;;;;;;4968329;28;20043;-68
2022/06/15 12:50:48;;;;;;;995.40;918.07;;;23.60;46.60;;;;;;4968563;28;20057;-68
2022/06/15 12:53:31;;;;;;;1008.47;927.63;;;23.60;46.30;;;;;;4968333;28;20380;-68